Terminal Aerodrome Forecast
Issued by NWS Lake Charles, LA

Current Version | Previous Version | Text Only | Print | Product List | Glossary On
Versions: 1 2 3 4 5 6 7 8 9 10 11 12 13
000
FTUS44 KLCH 202300
TAFARA
TAF
KARA 202328Z 2100/2124 VRB03KT P6SM VCTS FEW025CB SCT250
     FM210200 VRB03KT P6SM SCT250
     FM211500 18007KT P6SM VCTS SCT030CB SCT200=

USA.gov is the U.S. government's official web portal to all federal, state and local government web resources and services.